createdAt,value
2022-08-25T00:00:05.106Z,100453.75
2022-08-25T00:00:37.277Z,100449.41
2022-08-25T00:01:14.385Z,100454.06
2022-08-25T00:01:52.084Z,100453.28
2022-08-25T00:02:24.392Z,100455.56
2022-08-25T00:02:59.269Z,100456.38
2022-08-25T00:03:35.871Z,100446.50
2022-08-25T00:04:14.107Z,100453.16
2022-08-25T00:04:46.766Z,100457.06
2022-08-25T00:05:32.424Z,100451.78
2022-08-25T00:06:09.040Z,100449.03
2022-08-25T00:06:43.733Z,100458.09
2022-08-25T00:07:18.691Z,100454.53
2022-08-25T00:07:51.027Z,100455.34
2022-08-25T00:08:23.219Z,100454.53
2022-08-25T00:08:59.988Z,100453.41
2022-08-25T00:09:34.551Z,100447.09
2022-08-25T00:10:09.319Z,100452.94
2022-08-25T00:10:44.110Z,100455.69
2022-08-25T00:11:34.693Z,100455.91
2022-08-25T00:12:09.819Z,100454.75
2022-08-25T00:12:42.009Z,100454.75
2022-08-25T00:13:14.274Z,100458.31
2022-08-25T00:13:51.823Z,100459.13
2022-08-25T00:14:26.617Z,100460.25
2022-08-25T00:15:01.936Z,100454.28
2022-08-25T00:15:34.548Z,100458.19
2022-08-25T00:16:07.052Z,100457.03
2022-08-25T00:16:39.964Z,100457.03
2022-08-25T00:17:14.670Z,100459.78
2022-08-25T00:17:46.806Z,100459.34
2022-08-25T00:18:19.839Z,100455.78
2022-08-25T00:18:58.334Z,100459.66
2022-08-25T00:19:33.459Z,100449.81
2022-08-25T00:20:09.631Z,100452.94
2022-08-25T00:20:48.823Z,100451.75
2022-08-25T00:21:21.866Z,100452.47
2022-08-25T00:21:54.299Z,100456.00
2022-08-25T00:22:29.345Z,100454.06
2022-08-25T00:23:01.880Z,100452.47
2022-08-25T00:23:34.645Z,100457.94
2022-08-25T00:24:10.502Z,100457.16
2022-08-25T00:24:42.858Z,100452.34
2022-08-25T00:25:15.354Z,100450.41
2022-08-25T00:25:50.990Z,100453.97
2022-08-25T00:26:23.953Z,100455.91
2022-08-25T00:26:59.039Z,100449.25
2022-08-25T00:27:34.225Z,100450.41
2022-08-25T00:28:08.486Z,100455.09
2022-08-25T00:28:40.967Z,100451.53
2022-08-25T00:29:16.536Z,100451.53
2022-08-25T00:29:48.725Z,100453.81
2022-08-25T00:30:21.034Z,100455.78
2022-08-25T00:30:55.805Z,100451.53
2022-08-25T00:31:38.732Z,100462.41
2022-08-25T00:32:13.980Z,100447.41
2022-08-25T00:32:55.164Z,100457.59
2022-08-25T00:33:31.402Z,100461.81
2022-08-25T00:34:07.669Z,100465.38
2022-08-25T00:34:40.101Z,100457.47
2022-08-25T00:35:12.649Z,100464.13
2022-08-25T00:35:50.485Z,100464.13
2022-08-25T00:36:22.691Z,100460.09
2022-08-25T00:36:54.898Z,100464.78
2022-08-25T00:37:29.699Z,100466.72
2022-08-25T00:38:02.394Z,100464.34
2022-08-25T00:38:34.758Z,100459.97
2022-08-25T00:39:10.981Z,100459.19
2022-08-25T00:39:43.220Z,100459.06
2022-08-25T00:40:18.113Z,100462.59
2022-08-25T00:41:06.089Z,100458.25
2022-08-25T00:41:42.389Z,100462.34
2022-08-25T00:42:16.264Z,100457.22
2022-08-25T00:42:48.651Z,100462.34
2022-08-25T00:43:25.097Z,100465.09
2022-08-25T00:44:00.266Z,100462.69
2022-08-25T00:44:33.366Z,100467.72
2022-08-25T00:45:09.680Z,100458.69
2022-08-25T00:45:41.848Z,100464.53
2022-08-25T00:46:18.251Z,100457.41
2022-08-25T00:46:56.703Z,100456.13
2022-08-25T00:47:28.902Z,100455.69
2022-08-25T00:48:01.513Z,100461.19
2022-08-25T00:48:36.455Z,100460.38
2022-08-25T00:49:24.629Z,100463.94
2022-08-25T00:50:00.254Z,100464.09
2022-08-25T00:50:37.599Z,100463.31
2022-08-25T00:51:15.018Z,100457.00
2022-08-25T00:51:51.290Z,100462.50
2022-08-25T00:52:28.703Z,100460.06
2022-08-25T00:53:03.419Z,100467.53
2022-08-25T00:53:36.307Z,100461.25
2022-08-25T00:54:15.989Z,100462.81
2022-08-25T00:54:51.127Z,100463.50
2022-08-25T00:55:27.727Z,100463.84
2022-08-25T00:56:02.651Z,100461.91
2022-08-25T00:56:35.438Z,100458.69
2022-08-25T00:57:09.367Z,100463.84
2022-08-25T00:57:49.056Z,100461.44
2022-08-25T00:58:25.857Z,100468.41
2022-08-25T00:58:59.805Z,100464.88
2022-08-25T00:59:34.826Z,100464.88
2022-08-25T01:00:14.136Z,100468.75
2022-08-25T01:00:49.610Z,100462.78
2022-08-25T01:01:24.441Z,100456.50
2022-08-25T01:01:57.709Z,100457.28
2022-08-25T01:02:29.993Z,100462.78
2022-08-25T01:03:05.197Z,100469.88
2022-08-25T01:03:37.458Z,100464.72
2022-08-25T01:04:09.655Z,100467.47
2022-08-25T01:04:47.216Z,100461.19
2022-08-25T01:05:24.264Z,100465.41
2022-08-25T01:05:57.205Z,100461.06
2022-08-25T01:06:36.457Z,100466.53
2022-08-25T01:07:17.421Z,100458.66
2022-08-25T01:07:50.837Z,100460.13
2022-08-25T01:08:28.963Z,100459.31
2022-08-25T01:09:04.098Z,100460.81
2022-08-25T01:09:38.084Z,100461.63
2022-08-25T01:10:12.117Z,100461.63
2022-08-25T01:10:47.979Z,100460.00
2022-08-25T01:11:20.231Z,100461.94
2022-08-25T01:11:54.484Z,100457.59
2022-08-25T01:12:29.332Z,100461.13
2022-08-25T01:13:06.506Z,100460.69
2022-08-25T01:13:51.332Z,100461.34
2022-08-25T01:14:27.812Z,100459.72
2022-08-25T01:15:02.217Z,100465.22
2022-08-25T01:15:35.227Z,100465.22
2022-08-25T01:16:13.119Z,100462.00
2022-08-25T01:16:46.461Z,100458.78
2022-08-25T01:17:23.358Z,100457.66
2022-08-25T01:18:01.378Z,100458.47
2022-08-25T01:18:44.950Z,100459.16
2022-08-25T01:19:17.377Z,100459.16
2022-08-25T01:19:52.136Z,100456.03
2022-08-25T01:20:29.626Z,100463.16
2022-08-25T01:21:04.524Z,100456.03
2022-08-25T01:21:43.957Z,100455.28
2022-08-25T01:22:17.452Z,100458.34
2022-08-25T01:22:55.020Z,100460.75
2022-08-25T01:23:30.298Z,100455.59
2022-08-25T01:24:02.653Z,100456.41
2022-08-25T01:24:40.839Z,100461.88
2022-08-25T01:25:31.327Z,100457.53
2022-08-25T01:26:05.610Z,100457.81
2022-08-25T01:26:37.870Z,100451.63
2022-08-25T01:27:13.471Z,100456.13
2022-08-25T01:27:45.776Z,100453.38
2022-08-25T01:28:20.262Z,100456.59
2022-08-25T01:29:07.562Z,100456.59
2022-08-25T01:29:42.995Z,100456.13
2022-08-25T01:30:15.454Z,100457.28
2022-08-25T01:30:48.254Z,100456.13
2022-08-25T01:31:23.940Z,100456.13
2022-08-25T01:32:01.382Z,100456.13
2022-08-25T01:32:34.983Z,100450.19
2022-08-25T01:33:09.155Z,100462.28
2022-08-25T01:33:43.907Z,100454.88
2022-08-25T01:34:17.595Z,100455.66
2022-08-25T01:34:49.873Z,100456.81
2022-08-25T01:35:27.206Z,100456.00
2022-08-25T01:35:59.623Z,100452.00
2022-08-25T01:36:35.726Z,100453.56
2022-08-25T01:37:12.054Z,100450.38
2022-08-25T01:37:45.739Z,100455.06
2022-08-25T01:38:18.675Z,100454.25
2022-08-25T01:38:54.094Z,100449.91
2022-08-25T01:39:28.850Z,100456.19
2022-08-25T01:40:03.690Z,100452.63
2022-08-25T01:40:37.159Z,100455.38
2022-08-25T01:41:09.289Z,100458.94
2022-08-25T01:41:52.034Z,100450.72
2022-08-25T01:42:33.225Z,100456.53
2022-08-25T01:43:14.887Z,100461.22
2022-08-25T01:43:47.126Z,100456.88
2022-08-25T01:44:19.558Z,100451.84
2022-08-25T01:44:54.752Z,100455.38
2022-08-25T01:45:27.562Z,100456.19
2022-08-25T01:46:01.147Z,100453.44
2022-08-25T01:46:36.671Z,100444.09
2022-08-25T01:47:09.822Z,100448.78
2022-08-25T01:47:42.235Z,100444.41
2022-08-25T01:48:18.530Z,100449.09
2022-08-25T01:48:50.690Z,100458.13
2022-08-25T01:49:22.951Z,100454.56
2022-08-25T01:49:57.968Z,100452.63
2022-08-25T01:50:31.142Z,100451.84
2022-08-25T01:51:03.329Z,100452.63
2022-08-25T01:51:45.911Z,100462.81
2022-08-25T01:52:24.085Z,100458.00
2022-08-25T01:53:00.784Z,100456.38
2022-08-25T01:53:35.545Z,100454.81
2022-08-25T01:54:07.673Z,100453.66
2022-08-25T01:54:39.931Z,100455.25
2022-08-25T01:55:14.965Z,100458.00
2022-08-25T01:55:54.355Z,100458.81
2022-08-25T01:56:29.236Z,100455.59
2022-08-25T01:57:02.114Z,100461.41
2022-08-25T01:57:34.322Z,100457.53
2022-08-25T01:58:09.084Z,100458.31
2022-08-25T01:58:44.831Z,100464.16
2022-08-25T01:59:24.241Z,100451.59
2022-08-25T01:59:56.735Z,100455.00
2022-08-25T02:00:31.941Z,100457.75
2022-08-25T02:01:07.881Z,100464.84
2022-08-25T02:01:42.687Z,100463.22
2022-08-25T02:02:15.110Z,100456.94
2022-08-25T02:02:54.233Z,100450.66
2022-08-25T02:03:28.995Z,100454.50
2022-08-25T02:04:01.424Z,100463.56
2022-08-25T02:04:37.567Z,100455.00
2022-08-25T02:05:10.980Z,100457.75
2022-08-25T02:05:43.128Z,100460.00
2022-08-25T02:06:30.065Z,100458.38
2022-08-25T02:07:07.678Z,100459.88
2022-08-25T02:07:40.300Z,100457.41
2022-08-25T02:08:15.194Z,100459.34
2022-08-25T02:08:51.262Z,100459.34
2022-08-25T02:09:26.107Z,100457.78
2022-08-25T02:09:58.732Z,100460.50
2022-08-25T02:10:36.025Z,100461.66
2022-08-25T02:11:14.794Z,100455.84
2022-08-25T02:11:47.986Z,100456.47
2022-08-25T02:12:20.484Z,100459.22
2022-08-25T02:12:55.278Z,100461.97
2022-08-25T02:13:31.509Z,100463.09
2022-08-25T02:14:04.535Z,100454.41
2022-08-25T02:14:39.445Z,100463.44
2022-08-25T02:15:14.708Z,100460.22
2022-08-25T02:15:51.025Z,100458.97
2022-08-25T02:16:29.056Z,100462.84
2022-08-25T02:17:01.467Z,100462.34
2022-08-25T02:17:36.783Z,100458.81
2022-08-25T02:18:12.128Z,100461.91
2022-08-25T02:18:45.845Z,100458.66
2022-08-25T02:19:19.312Z,100460.63
2022-08-25T02:19:55.899Z,100462.56
2022-08-25T02:20:28.119Z,100463.69
2022-08-25T02:21:00.448Z,100469.19
2022-08-25T02:21:33.015Z,100460.16
2022-08-25T02:22:10.529Z,100462.56
2022-08-25T02:22:43.438Z,100466.75
2022-08-25T02:23:23.320Z,100463.06
2022-08-25T02:23:56.695Z,100463.56
2022-08-25T02:24:31.733Z,100464.69
2022-08-25T02:25:05.842Z,100467.44
2022-08-25T02:25:40.226Z,100466.63
2022-08-25T02:26:19.041Z,100464.69
2022-08-25T02:26:51.857Z,100462.28
2022-08-25T02:27:24.529Z,100457.91
2022-08-25T02:27:59.311Z,100463.06
2022-08-25T02:28:31.599Z,100464.19
2022-08-25T02:29:05.568Z,100455.16
2022-08-25T02:29:40.331Z,100460.19
2022-08-25T02:30:14.146Z,100459.41
2022-08-25T02:30:46.380Z,100464.06
2022-08-25T02:31:22.943Z,100462.94
2022-08-25T02:31:55.113Z,100464.38
2022-08-25T02:32:28.012Z,100463.63
2022-08-25T02:33:02.778Z,100467.47
2022-08-25T02:33:35.035Z,100460.38
2022-08-25T02:34:11.448Z,100454.91
2022-08-25T02:34:43.685Z,100460.72
2022-08-25T02:35:16.057Z,100459.91
2022-08-25T02:35:51.926Z,100463.78
2022-08-25T02:36:24.796Z,100458.31
2022-08-25T02:36:57.181Z,100462.63
2022-08-25T02:37:35.042Z,100463.00
2022-08-25T02:38:07.868Z,100464.13
2022-08-25T02:38:40.298Z,100456.22
2022-08-25T02:39:15.418Z,100462.19
2022-08-25T02:39:47.679Z,100459.75
2022-08-25T02:40:21.513Z,100467.97
2022-08-25T02:40:56.443Z,100463.63
2022-08-25T02:41:31.590Z,100461.69
2022-08-25T02:42:04.355Z,100463.19
2022-08-25T02:42:39.443Z,100459.63
2022-08-25T02:43:14.921Z,100468.97
2022-08-25T02:43:48.731Z,100463.03
2022-08-25T02:44:23.534Z,100462.69
2022-08-25T02:44:55.939Z,100463.03
2022-08-25T02:45:28.298Z,100464.66
2022-08-25T02:46:03.117Z,100464.66
2022-08-25T02:46:39.068Z,100461.44
2022-08-25T02:47:11.270Z,100458.69
2022-08-25T02:47:46.211Z,100463.03
2022-08-25T02:48:18.410Z,100468.03
2022-08-25T02:48:52.979Z,100459.81
2022-08-25T02:49:28.476Z,100465.28
2022-08-25T02:50:00.650Z,100470.31
2022-08-25T02:50:33.454Z,100471.91
2022-08-25T02:51:12.439Z,100463.69
2022-08-25T02:51:44.646Z,100464.84
2022-08-25T02:52:17.265Z,100467.56
2022-08-25T02:52:55.158Z,100465.63
2022-08-25T02:53:28.704Z,100464.34
2022-08-25T02:54:02.698Z,100455.31
2022-08-25T02:54:37.924Z,100463.53
2022-08-25T02:55:14.407Z,100460.00
2022-08-25T02:55:47.684Z,100466.63
2022-08-25T02:56:23.894Z,100461.94
2022-08-25T02:56:56.124Z,100465.00
2022-08-25T02:57:31.085Z,100462.28
2022-08-25T02:58:03.338Z,100465.34
2022-08-25T02:58:35.694Z,100466.13
2022-08-25T02:59:11.116Z,100463.41
2022-08-25T02:59:43.391Z,100461.31
2022-08-25T03:00:17.205Z,100461.78
2022-08-25T03:00:53.069Z,100455.84
2022-08-25T03:01:28.641Z,100458.91
2022-08-25T03:02:03.878Z,100461.97
2022-08-25T03:02:36.090Z,100460.38
2022-08-25T03:03:10.049Z,100469.38
2022-08-25T03:03:47.067Z,100466.63
2022-08-25T03:04:19.387Z,100466.97
2022-08-25T03:04:52.433Z,100460.69
2022-08-25T03:05:30.273Z,100459.91
2022-08-25T03:06:02.573Z,100458.78
2022-08-25T03:06:37.477Z,100466.97
2022-08-25T03:07:10.986Z,100462.63
2022-08-25T03:07:44.847Z,100462.94
2022-08-25T03:08:22.172Z,100462.63
2022-08-25T03:08:54.939Z,100469.59
2022-08-25T03:09:27.698Z,100465.69
2022-08-25T03:10:02.694Z,100471.16
2022-08-25T03:10:35.553Z,100467.97
2022-08-25T03:11:07.763Z,100469.91
2022-08-25T03:11:42.610Z,100469.91
2022-08-25T03:12:15.127Z,100470.72
2022-08-25T03:12:47.822Z,100467.16
2022-08-25T03:13:20.015Z,100474.25
2022-08-25T03:13:54.902Z,100473.44
2022-08-25T03:14:27.147Z,100461.69
2022-08-25T03:14:59.510Z,100467.16
2022-08-25T03:15:37.810Z,100460.56
2022-08-25T03:16:11.330Z,100466.69
2022-08-25T03:16:46.314Z,100468.28
2022-08-25T03:17:21.406Z,100468.28
2022-08-25T03:17:55.735Z,100465.56
2022-08-25T03:18:35.116Z,100467.81
2022-08-25T03:19:07.373Z,100463.16
2022-08-25T03:19:39.577Z,100464.75
2022-08-25T03:20:15.612Z,100462.34
2022-08-25T03:20:47.787Z,100464.75
2022-08-25T03:21:21.269Z,100468.63
2022-08-25T03:21:57.090Z,100476.03
2022-08-25T03:22:29.315Z,100462.34
2022-08-25T03:23:01.594Z,100462.34
2022-08-25T03:23:39.082Z,100463.16
2022-08-25T03:24:11.341Z,100462.97
2022-08-25T03:24:43.557Z,100460.25
2022-08-25T03:25:34.026Z,100459.41
2022-08-25T03:26:21.769Z,100461.19
2022-08-25T03:26:57.272Z,100462.66
2022-08-25T03:27:30.511Z,100461.53
2022-08-25T03:28:04.232Z,100468.28
2022-08-25T03:28:36.649Z,100467.16
2022-08-25T03:29:12.096Z,100462.50
2022-08-25T03:29:44.247Z,100459.75
2022-08-25T03:30:16.888Z,100464.88
2022-08-25T03:30:55.751Z,100457.03
2022-08-25T03:31:31.997Z,100468.28
2022-08-25T03:32:05.425Z,100466.03
2022-08-25T03:32:38.710Z,100460.56
2022-08-25T03:33:14.039Z,100459.41
2022-08-25T03:33:46.738Z,100459.75
2022-08-25T03:34:22.749Z,100461.69
2022-08-25T03:34:55.025Z,100461.69
2022-08-25T03:35:27.313Z,100454.28
2022-08-25T03:36:02.777Z,100459.75
2022-08-25T03:36:37.818Z,100467.16
2022-08-25T03:37:10.281Z,100458.16
2022-08-25T03:37:42.490Z,100469.09
2022-08-25T03:38:17.277Z,100463.31
2022-08-25T03:38:52.462Z,100460.88
2022-08-25T03:39:26.195Z,100463.94
2022-08-25T03:40:00.995Z,100468.28
2022-08-25T03:40:33.332Z,100451.06
2022-08-25T03:41:12.729Z,100459.28
2022-08-25T03:41:48.238Z,100465.88
2022-08-25T03:42:20.433Z,100460.75
2022-08-25T03:42:52.874Z,100464.28
2022-08-25T03:43:27.662Z,100467.03
2022-08-25T03:44:01.334Z,100457.19
2022-08-25T03:44:33.829Z,100468.16
2022-08-25T03:45:11.763Z,100457.19
2022-08-25T03:45:45.439Z,100473.63
2022-08-25T03:46:19.982Z,100469.28
2022-08-25T03:46:55.639Z,100479.09
2022-08-25T03:47:29.558Z,100483.78
2022-08-25T03:48:01.867Z,100481.84
2022-08-25T03:48:36.892Z,100474.75
2022-08-25T03:49:11.955Z,100479.41
2022-08-25T03:49:44.087Z,100482.97
2022-08-25T03:50:21.078Z,100476.38
2022-08-25T03:50:54.872Z,100481.03
2022-08-25T03:51:29.477Z,100473.63
2022-08-25T03:52:04.260Z,100479.09
2022-08-25T03:52:42.244Z,100468.97
2022-08-25T03:53:14.936Z,100468.16
2022-08-25T03:53:47.306Z,100465.41
2022-08-25T03:54:27.164Z,100463.13
2022-08-25T03:54:59.451Z,100468.97
2022-08-25T03:55:31.716Z,100459.63
2022-08-25T03:56:07.598Z,100460.41
2022-08-25T03:56:40.726Z,100454.13
2022-08-25T03:57:16.027Z,100453.34
2022-08-25T03:57:48.282Z,100456.06
2022-08-25T03:58:22.502Z,100456.88
2022-08-25T03:58:57.672Z,100461.19
2022-08-25T03:59:30.630Z,100452.97
2022-08-25T04:00:03.910Z,100458.16
2022-08-25T04:00:46.681Z,100458.81
2022-08-25T04:01:18.962Z,100464.28
2022-08-25T04:01:55.439Z,100466.69
2022-08-25T04:02:28.080Z,100468.59
2022-08-25T04:03:00.398Z,100467.47
2022-08-25T04:03:35.373Z,100471.03
2022-08-25T04:04:09.165Z,100480.06
2022-08-25T04:04:41.451Z,100471.84
2022-08-25T04:05:16.779Z,100469.09
2022-08-25T04:05:48.953Z,100462.00
2022-08-25T04:06:24.018Z,100457.34
2022-08-25T04:06:56.250Z,100453.47
2022-08-25T04:07:28.613Z,100448.47
2022-08-25T04:08:04.806Z,100447.84
2022-08-25T04:08:38.051Z,100458.00
2022-08-25T04:09:10.742Z,100454.94
2022-08-25T04:09:48.323Z,100454.59
2022-08-25T04:10:20.785Z,100461.19
2022-08-25T04:10:52.940Z,100457.34
2022-08-25T04:11:28.929Z,100460.88
2022-08-25T04:12:01.294Z,100471.84
2022-08-25T04:12:33.757Z,100467.16
2022-08-25T04:13:08.581Z,100467.16
2022-08-25T04:13:42.481Z,100473.44
2022-08-25T04:14:16.582Z,100462.81
2022-08-25T04:14:49.251Z,100458.94
2022-08-25T04:15:27.107Z,100464.44
2022-08-25T04:16:02.575Z,100456.53
2022-08-25T04:16:35.877Z,100457.34
2022-08-25T04:17:10.906Z,100446.38
2022-08-25T04:17:43.145Z,100452.00
2022-08-25T04:18:16.865Z,100449.25
2022-08-25T04:18:52.495Z,100450.06
2022-08-25T04:19:24.732Z,100458.63
2022-08-25T04:19:57.477Z,100448.47
2022-08-25T04:20:32.320Z,100454.72
2022-08-25T04:21:05.638Z,100457.47
2022-08-25T04:21:39.134Z,100455.88
2022-08-25T04:22:14.229Z,100460.56
2022-08-25T04:22:47.010Z,100464.09
2022-08-25T04:23:19.154Z,100461.38
2022-08-25T04:23:55.724Z,100464.91
2022-08-25T04:24:27.962Z,100463.31
2022-08-25T04:25:03.002Z,100455.09
2022-08-25T04:25:38.596Z,100460.56
2022-08-25T04:26:11.977Z,100457.81
2022-08-25T04:26:46.492Z,100452.00
2022-08-25T04:27:21.226Z,100455.88
2022-08-25T04:27:53.487Z,100446.50
2022-08-25T04:28:25.687Z,100447.81
2022-08-25T04:29:02.109Z,100447.47
2022-08-25T04:29:34.510Z,100452.16
2022-08-25T04:30:08.116Z,100449.06
2022-08-25T04:30:49.111Z,100451.81
2022-08-25T04:31:24.400Z,100463.13
2022-08-25T04:31:56.706Z,100450.19
2022-08-25T04:32:32.336Z,100447.13
2022-08-25T04:33:04.549Z,100447.13
2022-08-25T04:33:38.325Z,100456.97
2022-08-25T04:34:29.419Z,100451.50
2022-08-25T04:35:04.511Z,100441.53
2022-08-25T04:35:36.724Z,100450.19
2022-08-25T04:36:14.449Z,100445.22
2022-08-25T04:36:46.947Z,100444.41
2022-08-25T04:37:24.953Z,100445.22
2022-08-25T04:37:59.878Z,100444.41
2022-08-25T04:38:32.561Z,100438.59
2022-08-25T04:39:04.958Z,100449.56
2022-08-25T04:39:39.841Z,100438.59
2022-08-25T04:40:14.969Z,100447.63
2022-08-25T04:40:56.800Z,100443.59
2022-08-25T04:41:32.109Z,100444.41
2022-08-25T04:42:05.607Z,100442.47
2022-08-25T04:42:39.460Z,100446.47
2022-08-25T04:43:14.229Z,100439.88
2022-08-25T04:43:46.835Z,100438.25
2022-08-25T04:44:19.129Z,100442.59
2022-08-25T04:44:54.599Z,100443.41
2022-08-25T04:45:26.940Z,100444.09
2022-08-25T04:46:00.184Z,100439.41
2022-08-25T04:46:37.072Z,100444.53
2022-08-25T04:47:09.872Z,100440.53
2022-08-25T04:47:42.064Z,100439.41
2022-08-25T04:48:16.827Z,100435.50
2022-08-25T04:48:49.678Z,100431.66
2022-08-25T04:49:21.912Z,100442.28
2022-08-25T04:49:56.755Z,100429.72
2022-08-25T04:50:29.773Z,100445.03
2022-08-25T04:51:05.591Z,100441.16
2022-08-25T04:51:42.670Z,100438.75
2022-08-25T04:52:14.925Z,100434.38
2022-08-25T04:52:47.097Z,100440.69
2022-08-25T04:53:22.242Z,100443.41
2022-08-25T04:53:54.572Z,100439.88
2022-08-25T04:54:28.295Z,100440.69
2022-08-25T04:55:03.261Z,100448.09
2022-08-25T04:55:43.059Z,100440.69
2022-08-25T04:56:18.213Z,100443.41
2022-08-25T04:56:58.297Z,100441.47
2022-08-25T04:57:31.039Z,100443.41
2022-08-25T04:58:03.668Z,100445.84
2022-08-25T04:58:39.423Z,100448.22
2022-08-25T04:59:14.509Z,100443.56
2022-08-25T04:59:46.777Z,100439.22
2022-08-25T05:00:22.088Z,100449.03
2022-08-25T05:01:01.391Z,100433.75
2022-08-25T05:01:34.260Z,100434.88
2022-08-25T05:02:10.101Z,100437.63
2022-08-25T05:02:42.428Z,100438.06
2022-08-25T05:03:14.806Z,100439.22
2022-08-25T05:03:49.105Z,100441.97
2022-08-25T05:04:27.717Z,100435.69
2022-08-25T05:05:01.584Z,100433.25
2022-08-25T05:05:37.224Z,100434.88
2022-08-25T05:06:15.826Z,100437.63
2022-08-25T05:06:48.948Z,100429.41
2022-08-25T05:07:21.235Z,100430.22
2022-08-25T05:07:56.116Z,100437.28
2022-08-25T05:08:28.744Z,100440.34
2022-08-25T05:09:02.229Z,100435.34
2022-08-25T05:09:37.997Z,100436.13
2022-08-25T05:10:10.565Z,100441.63
2022-08-25T05:10:45.496Z,100437.75
2022-08-25T05:11:21.980Z,100438.06
2022-08-25T05:11:56.146Z,100440.81
2022-08-25T05:12:29.110Z,100438.56
2022-08-25T05:13:04.068Z,100438.25
2022-08-25T05:13:36.821Z,100438.25
2022-08-25T05:14:12.277Z,100430.03
2022-08-25T05:14:47.335Z,100439.81
2022-08-25T05:15:34.872Z,100430.78
2022-08-25T05:16:09.832Z,100435.00
2022-08-25T05:16:46.288Z,100427.59
2022-08-25T05:17:19.265Z,100432.75
2022-08-25T05:17:56.104Z,100429.22
2022-08-25T05:18:33.433Z,100428.88
2022-08-25T05:19:05.824Z,100437.09
2022-08-25T05:19:40.730Z,100426.13
2022-08-25T05:20:12.940Z,100424.19
2022-08-25T05:20:45.753Z,100421.13
2022-08-25T05:21:25.076Z,100419.53
2022-08-25T05:21:57.927Z,100423.38
2022-08-25T05:22:33.529Z,100419.53
2022-08-25T05:23:05.938Z,100421.94
2022-08-25T05:23:41.273Z,100423.19
2022-08-25T05:24:16.083Z,100426.06
2022-08-25T05:24:49.062Z,100431.22
2022-08-25T05:25:21.249Z,100423.81
2022-08-25T05:25:59.527Z,100423.16
2022-08-25T05:26:34.974Z,100424.28
2022-08-25T05:27:07.113Z,100426.38
2022-08-25T05:27:42.153Z,100427.19
2022-08-25T05:28:15.322Z,100429.56
2022-08-25T05:28:49.065Z,100428.13
2022-08-25T05:29:24.052Z,100432.47
2022-08-25T05:29:56.232Z,100431.31
2022-08-25T05:30:28.632Z,100426.19
2022-08-25T05:31:05.640Z,100427.56
2022-08-25T05:31:43.074Z,100426.78
2022-08-25T05:32:18.813Z,100423.72
2022-08-25T05:32:51.023Z,100428.06
2022-08-25T05:33:23.250Z,100430.13
2022-08-25T05:33:58.234Z,100421.59
2022-08-25T05:34:31.265Z,100427.50
2022-08-25T05:35:03.790Z,100426.06
2022-08-25T05:35:38.997Z,100422.97
2022-08-25T05:36:13.451Z,100428.13
2022-08-25T05:36:48.712Z,100427.00
2022-08-25T05:37:20.901Z,100427.81
2022-08-25T05:37:53.086Z,100428.25
2022-08-25T05:38:27.882Z,100428.25
2022-08-25T05:39:00.147Z,100421.97
2022-08-25T05:39:35.167Z,100425.50
2022-08-25T05:40:09.014Z,100426.31
2022-08-25T05:40:41.286Z,100426.81
2022-08-25T05:41:20.541Z,100409.88
2022-08-25T05:41:52.651Z,100423.72
2022-08-25T05:42:25.259Z,100425.47
2022-08-25T05:43:00.108Z,100424.34
2022-08-25T05:43:32.949Z,100426.44
2022-08-25T05:44:08.210Z,100422.53
2022-08-25T05:44:40.447Z,100429.31
2022-08-25T05:45:15.840Z,100428.97
2022-08-25T05:45:56.800Z,100427.03
2022-08-25T05:46:30.539Z,100415.72
2022-08-25T05:47:04.502Z,100424.41
2022-08-25T05:47:39.292Z,100427.63
2022-08-25T05:48:12.987Z,100426.81
2022-08-25T05:48:45.848Z,100429.56
2022-08-25T05:49:20.906Z,100425.38
2022-08-25T05:49:53.129Z,100428.56
2022-08-25T05:50:25.457Z,100424.69
2022-08-25T05:51:02.731Z,100425.13
2022-08-25T05:51:34.885Z,100423.19
2022-08-25T05:52:09.805Z,100425.63
2022-08-25T05:52:42.046Z,100425.63
2022-08-25T05:53:14.171Z,100424.50
2022-08-25T05:53:51.956Z,100417.38
2022-08-25T05:54:24.468Z,100428.03
2022-08-25T05:54:56.634Z,100416.72
2022-08-25T05:55:31.596Z,100422.69
2022-08-25T05:56:04.366Z,100419.94
2022-08-25T05:56:40.205Z,100421.19
2022-08-25T05:57:14.952Z,100420.38
2022-08-25T05:57:47.199Z,100418.44
2022-08-25T05:58:19.594Z,100418.44
2022-08-25T05:58:54.379Z,100417.31
2022-08-25T05:59:26.834Z,100422.47
2022-08-25T05:59:59.039Z,100423.28
2022-08-25T06:00:33.897Z,100418.25
2022-08-25T06:01:21.465Z,100413.88
2022-08-25T06:02:08.910Z,100420.84
2022-08-25T06:02:41.554Z,100414.56
2022-08-25T06:03:13.788Z,100418.56
2022-08-25T06:03:46.736Z,100418.25
2022-08-25T06:04:22.753Z,100416.78
2022-08-25T06:04:54.918Z,100418.34
2022-08-25T06:05:29.764Z,100420.44
2022-08-25T06:06:07.305Z,100417.03
2022-08-25T06:06:40.370Z,100414.75
2022-08-25T06:07:15.241Z,100417.94
2022-08-25T06:07:48.850Z,100410.19
2022-08-25T06:08:21.183Z,100426.31
2022-08-25T06:08:56.000Z,100419.69
2022-08-25T06:09:28.225Z,100420.47
2022-08-25T06:10:00.397Z,100422.91
2022-08-25T06:10:35.574Z,100425.75
2022-08-25T06:11:07.795Z,100422.22
2022-08-25T06:11:43.123Z,100423.81
2022-08-25T06:12:17.870Z,100423.81
2022-08-25T06:12:50.278Z,100422.66
2022-08-25T06:13:28.791Z,100425.09
2022-08-25T06:14:03.930Z,100422.66
2022-08-25T06:14:36.190Z,100427.03
2022-08-25T06:15:13.411Z,100423.13
2022-08-25T06:15:45.549Z,100422.00
2022-08-25T06:16:18.443Z,100427.13
2022-08-25T06:16:53.951Z,100426.81
2022-08-25T06:17:26.174Z,100427.63
2022-08-25T06:18:01.710Z,100417.44
2022-08-25T06:18:36.868Z,100421.00
2022-08-25T06:19:10.622Z,100428.91
2022-08-25T06:19:45.962Z,100429.69
2022-08-25T06:20:22.137Z,100418.41
2022-08-25T06:20:57.717Z,100418.72
2022-08-25T06:21:32.564Z,100423.56
2022-08-25T06:22:04.752Z,100416.91
2022-08-25T06:22:37.815Z,100420.13
2022-08-25T06:23:13.061Z,100415.44
2022-08-25T06:23:45.257Z,100410.75
2022-08-25T06:24:17.533Z,100417.84
2022-08-25T06:24:52.326Z,100418.63
2022-08-25T06:25:26.237Z,100418.63
2022-08-25T06:26:00.974Z,100414.31
2022-08-25T06:26:33.841Z,100415.09
2022-08-25T06:27:08.704Z,100410.53
2022-08-25T06:27:43.686Z,100416.03
2022-08-25T06:28:15.983Z,100412.13
2022-08-25T06:28:50.981Z,100414.53
2022-08-25T06:29:23.269Z,100416.94
2022-08-25T06:29:58.043Z,100415.78
2022-08-25T06:30:39.383Z,100409.50
2022-08-25T06:31:14.346Z,100416.25
2022-08-25T06:31:47.338Z,100420.25
2022-08-25T06:32:19.598Z,100412.50
2022-08-25T06:32:54.355Z,100417.66
2022-08-25T06:33:26.474Z,100417.28
2022-08-25T06:34:01.228Z,100422.13
2022-08-25T06:34:34.146Z,100422.22
2022-08-25T06:35:11.610Z,100423.16
2022-08-25T06:35:44.585Z,100414.56
2022-08-25T06:36:19.436Z,100425.19